Shallowell, North Carolina
Current Conditions -  °F | °C
As of 4:15 PM on Saturday 22 Nov 2014 (Local Time) from KTTA Reporting Station
Clear Clear  
Wind Chill: 54°   Ceiling: Unl
Heat Index: 54°   Visibility: 10mi
Dew Point: 14°   Wind: 0mph
Humidity: 21%   Direction: NA
Pressure: 30.4"   Gusts: NA
Location:  35.493°N, 79.1765°W
Report Text: KTTA 222115Z AUTO 00000KT 10SM CLR 12/M10 A3040 RMK AO2 T01211100
Loading
Personal Weather Stations






























Interactive Weather Map New forecast layout! Learn more

10-Day Weather Forecast

Advertisements
Track Severe Weather on mobile